Waubeek, Iowa
Current Conditions -  °F | °C
As of 10:15 AM on Thursday 30 Oct 2014 (Local Time) from KMXO Reporting Station
Few Clouds Few Clouds  
Wind Chill: 40°   Ceiling: Unl
Heat Index: 45°   Visibility: 10mi
Dew Point: 39°   Wind: 8mph
Humidity: 81%   Direction: 150°SSE
Pressure: 30.08"   Gusts: NA
Location:  42.1737°N, 91.5309°W
Report Text: KMXO 301515Z AUTO 15007KT 10SM FEW050 FEW065 FEW100 07/04 A3008 RMK AO2
Loading
Personal Weather Stations






























Interactive Weather Map
Tropical Storm Tracking
New forecast layout! Learn more

10-Day Weather Forecast

Advertisements
Track Severe Weather on mobile